createdAt,value
2018-09-28T00:00:53.847Z,97505.94
2018-09-28T00:03:22.405Z,97508.31
2018-09-28T00:05:51.050Z,97507.45
2018-09-28T00:08:19.687Z,97506.50
2018-09-28T00:10:48.221Z,97501.03
2018-09-28T00:13:16.765Z,97502.85
2018-09-28T00:15:45.288Z,97503.08
2018-09-28T00:18:14.110Z,97505.74
2018-09-28T00:20:42.638Z,97495.86
2018-09-28T00:23:11.178Z,97499.30
2018-09-28T00:25:40.154Z,97502.09
2018-09-28T00:28:08.727Z,97501.67
2018-09-28T00:30:37.263Z,97503.92
2018-09-28T00:33:05.843Z,97499.34
2018-09-28T00:35:34.369Z,97504.32
2018-09-28T00:38:03.034Z,97499.72
2018-09-28T00:40:31.542Z,97490.48
2018-09-28T00:43:00.098Z,97495.58
2018-09-28T00:45:28.630Z,97498.30
2018-09-28T00:47:57.174Z,97496.62
2018-09-28T00:50:25.716Z,97494.92
2018-09-28T00:52:54.266Z,97496.49
2018-09-28T00:55:22.790Z,97481.61
2018-09-28T00:57:51.362Z,97480.28
2018-09-28T01:00:20.402Z,97477.80
2018-09-28T01:02:49.364Z,97482.75
2018-09-28T01:05:18.273Z,97476.67
2018-09-28T01:07:46.827Z,97482.11
2018-09-28T01:10:15.352Z,97483.66
2018-09-28T01:12:43.862Z,97476.20
2018-09-28T01:15:12.522Z,97475.72
2018-09-28T01:17:41.073Z,97476.19
2018-09-28T01:20:09.613Z,97477.14
2018-09-28T01:22:38.151Z,97473.05
2018-09-28T01:25:06.719Z,97467.10
2018-09-28T01:27:35.249Z,97476.50
2018-09-28T01:30:04.238Z,97472.19
2018-09-28T01:32:33.258Z,97470.30
2018-09-28T01:35:01.830Z,97469.86
2018-09-28T01:37:30.366Z,97469.34
2018-09-28T01:39:58.923Z,97465.01
2018-09-28T01:42:27.588Z,97469.70
2018-09-28T01:44:56.750Z,97460.78
2018-09-28T01:47:25.265Z,97462.50
2018-09-28T01:49:53.842Z,97466.23
2018-09-28T01:52:22.357Z,97459.69
2018-09-28T01:54:50.910Z,97464.59
2018-09-28T01:57:19.446Z,97460.31
2018-09-28T01:59:47.986Z,97460.03
2018-09-28T02:02:16.514Z,97458.53
2018-09-28T02:04:45.418Z,97456.06
2018-09-28T02:07:13.959Z,97451.41
2018-09-28T02:09:42.528Z,97460.75
2018-09-28T02:12:11.074Z,97451.72
2018-09-28T02:14:39.633Z,97460.02
2018-09-28T02:17:08.135Z,97456.31
2018-09-28T02:19:37.618Z,97456.90
2018-09-28T02:22:06.209Z,97458.48
2018-09-28T02:24:34.758Z,97450.47
2018-09-28T02:27:03.289Z,97451.88
2018-09-28T02:29:31.881Z,97454.53
2018-09-28T02:32:00.406Z,97459.30
2018-09-28T02:34:28.961Z,97460.19
2018-09-28T02:36:57.493Z,97462.10
2018-09-28T02:39:26.046Z,97461.36
2018-09-28T02:41:54.554Z,97451.28
2018-09-28T02:44:23.131Z,97458.47
2018-09-28T02:46:51.671Z,97458.62
2018-09-28T02:49:20.218Z,97455.59
2018-09-28T02:51:48.738Z,97465.05
2018-09-28T02:54:17.377Z,97453.19
2018-09-28T02:56:45.990Z,97460.89
2018-09-28T02:59:14.490Z,97455.55
2018-09-28T03:01:43.302Z,97453.09
2018-09-28T03:04:11.841Z,97449.61
2018-09-28T03:06:40.394Z,97454.22
2018-09-28T03:09:10.185Z,97451.08
2018-09-28T03:11:38.856Z,97445.23
2018-09-28T03:14:07.527Z,97446.78
2018-09-28T03:16:36.062Z,97446.92
2018-09-28T03:19:04.633Z,97448.21
2018-09-28T03:21:33.738Z,97445.28
2018-09-28T03:24:02.293Z,97446.31
2018-09-28T03:26:30.818Z,97440.69
2018-09-28T03:28:59.394Z,97446.22
2018-09-28T03:31:27.950Z,97444.53
2018-09-28T03:33:56.961Z,97437.19
2018-09-28T03:36:25.495Z,97440.37
2018-09-28T03:38:54.454Z,97436.36
2018-09-28T03:41:22.978Z,97433.43
2018-09-28T03:43:51.533Z,97437.12
2018-09-28T03:46:20.098Z,97439.44
2018-09-28T03:48:49.074Z,97441.44
2018-09-28T03:51:17.594Z,97444.11
2018-09-28T03:53:46.126Z,97443.48
2018-09-28T03:56:14.650Z,97447.47
2018-09-28T03:58:43.205Z,97445.43
2018-09-28T04:01:11.737Z,97447.50
2018-09-28T04:03:40.281Z,97446.55
2018-09-28T04:06:08.802Z,97456.05
2018-09-28T04:08:37.320Z,97450.72
2018-09-28T04:11:05.858Z,97450.30
2018-09-28T04:13:34.389Z,97450.03
2018-09-28T04:16:02.930Z,97450.39
2018-09-28T04:18:31.456Z,97451.41
2018-09-28T04:21:00.014Z,97454.39
2018-09-28T04:23:28.533Z,97448.34
2018-09-28T04:25:57.134Z,97457.41
2018-09-28T04:28:25.702Z,97454.57
2018-09-28T04:30:54.615Z,97454.81
2018-09-28T04:33:23.334Z,97464.41
2018-09-28T04:35:52.128Z,97459.16
2018-09-28T04:38:20.651Z,97466.05
2018-09-28T04:40:49.230Z,97464.53
2018-09-28T04:43:17.765Z,97464.98
2018-09-28T04:45:46.315Z,97467.24
2018-09-28T04:48:14.861Z,97474.91
2018-09-28T04:50:43.434Z,97471.52
2018-09-28T04:53:11.950Z,97480.70
2018-09-28T04:55:40.530Z,97484.91
2018-09-28T04:58:09.163Z,97484.47
2018-09-28T05:00:37.721Z,97493.80
2018-09-28T05:03:06.597Z,97487.05
2018-09-28T05:05:35.137Z,97485.11
2018-09-28T05:08:03.657Z,97485.14
2018-09-28T05:10:32.221Z,97485.60
2018-09-28T05:13:00.783Z,97490.98
2018-09-28T05:15:29.338Z,97487.64
2018-09-28T05:17:57.859Z,97489.38
2018-09-28T05:20:26.430Z,97487.80
2018-09-28T05:22:55.013Z,97500.30
2018-09-28T05:25:23.725Z,97494.80
2018-09-28T05:27:52.234Z,97503.27
2018-09-28T05:30:20.785Z,97500.30
2018-09-28T05:32:49.461Z,97501.47
2018-09-28T05:35:17.890Z,97491.30
2018-09-28T05:37:46.401Z,97503.36
2018-09-28T05:40:14.949Z,97508.83
2018-09-28T05:42:43.627Z,97500.15
2018-09-28T05:45:12.171Z,97512.79
2018-09-28T05:47:40.689Z,97509.00
2018-09-28T05:50:09.309Z,97513.61
2018-09-28T05:52:37.832Z,97510.05
2018-09-28T05:55:06.629Z,97507.02
2018-09-28T05:57:35.159Z,97520.03
2018-09-28T06:00:09.192Z,97513.84
2018-09-28T06:02:42.831Z,97522.45
2018-09-28T06:05:16.650Z,97518.22
2018-09-28T06:07:45.176Z,97517.09
2018-09-28T06:10:13.834Z,97521.05
2018-09-28T06:12:42.458Z,97523.73
2018-09-28T06:15:11.018Z,97525.39
2018-09-28T06:17:39.540Z,97530.02
2018-09-28T06:20:08.341Z,97529.59
2018-09-28T06:22:36.879Z,97523.80
2018-09-28T06:25:05.486Z,97520.55
2018-09-28T06:27:34.003Z,97527.66
2018-09-28T06:30:02.582Z,97529.14
2018-09-28T06:32:31.189Z,97530.75
2018-09-28T06:34:59.757Z,97521.23
2018-09-28T06:37:28.287Z,97522.97
2018-09-28T06:39:56.838Z,97510.60
2018-09-28T06:42:25.444Z,97517.23
2018-09-28T06:44:53.947Z,97508.75
2018-09-28T06:47:22.491Z,97523.03
2018-09-28T06:49:51.055Z,97523.61
2018-09-28T06:52:19.578Z,97525.03
2018-09-28T06:54:48.115Z,97527.70
2018-09-28T06:57:16.658Z,97522.92
2018-09-28T06:59:45.226Z,97528.45
2018-09-28T07:02:13.746Z,97525.61
2018-09-28T07:04:42.307Z,97525.24
2018-09-28T07:07:10.857Z,97528.51
2018-09-28T07:09:39.387Z,97532.91
2018-09-28T07:12:07.978Z,97529.84
2018-09-28T07:14:36.502Z,97527.18
2018-09-28T07:17:05.068Z,97534.89
2018-09-28T07:19:33.606Z,97536.66
2018-09-28T07:22:02.170Z,97535.73
2018-09-28T07:24:30.723Z,97539.63
2018-09-28T07:26:59.274Z,97527.48
2018-09-28T07:29:27.810Z,97532.77
2018-09-28T07:31:56.367Z,97535.78
2018-09-28T07:34:24.908Z,97531.22
2018-09-28T07:36:53.551Z,97536.22
2018-09-28T07:39:22.077Z,97529.92
2018-09-28T07:41:50.710Z,97537.29
2018-09-28T07:44:19.210Z,97541.64
2018-09-28T07:46:47.814Z,97547.14
2018-09-28T07:49:16.384Z,97555.41
2018-09-28T07:51:44.965Z,97547.06
2018-09-28T07:54:13.510Z,97544.00
2018-09-28T07:56:42.341Z,97552.19
2018-09-28T07:59:10.874Z,97547.58
2018-09-28T08:01:39.458Z,97543.87
2018-09-28T08:04:08.311Z,97546.94
2018-09-28T08:06:37.437Z,97555.69
2018-09-28T08:09:07.982Z,97554.72
2018-09-28T08:11:39.213Z,97556.78
2018-09-28T08:14:08.517Z,97555.10
2018-09-28T08:16:37.365Z,97564.00
2018-09-28T08:19:05.978Z,97571.32
2018-09-28T08:21:35.657Z,97576.06
2018-09-28T08:24:04.215Z,97580.52
2018-09-28T08:26:32.796Z,97579.16
2018-09-28T08:29:01.498Z,97583.07
2018-09-28T08:31:30.082Z,97589.92
2018-09-28T08:33:59.116Z,97594.18
2018-09-28T08:36:27.811Z,97577.64
2018-09-28T08:38:56.286Z,97574.56
2018-09-28T08:41:24.917Z,97578.94
2018-09-28T08:43:53.725Z,97582.19
2018-09-28T08:46:22.570Z,97578.14
2018-09-28T08:48:51.121Z,97583.61
2018-09-28T08:51:19.722Z,97581.06
2018-09-28T08:53:48.306Z,97586.95
2018-09-28T08:56:16.891Z,97584.59
2018-09-28T08:58:45.450Z,97588.95
2018-09-28T09:01:14.054Z,97584.84
2018-09-28T09:03:42.633Z,97595.41
2018-09-28T09:06:11.246Z,97588.67
2018-09-28T09:08:39.793Z,97592.84
2018-09-28T09:11:08.437Z,97598.83
2018-09-28T09:13:37.162Z,97601.14
2018-09-28T09:16:06.049Z,97599.79
2018-09-28T09:18:34.607Z,97595.20
2018-09-28T09:21:03.238Z,97594.78
2018-09-28T09:23:31.818Z,97594.95
2018-09-28T09:26:00.414Z,97598.92
2018-09-28T09:28:29.496Z,97596.66
2018-09-28T09:30:58.319Z,97601.61
2018-09-28T09:33:26.905Z,97606.00
2018-09-28T09:35:55.697Z,97604.97
2018-09-28T09:38:24.246Z,97592.47
2018-09-28T09:40:52.837Z,97604.11
2018-09-28T09:43:21.388Z,97592.14
2018-09-28T09:45:49.961Z,97592.13
2018-09-28T09:48:18.540Z,97606.81
2018-09-28T09:50:47.363Z,97596.01
2018-09-28T09:53:15.919Z,97607.83
2018-09-28T09:55:44.461Z,97604.28
2018-09-28T09:58:13.132Z,97612.17
2018-09-28T10:00:47.382Z,97613.15
2018-09-28T10:03:21.192Z,97620.36
2018-09-28T10:05:49.751Z,97618.08
2018-09-28T10:08:18.318Z,97618.34
2018-09-28T10:10:47.142Z,97617.49
2018-09-28T10:13:15.753Z,97623.19
2018-09-28T10:15:44.309Z,97612.89
2018-09-28T10:18:12.893Z,97617.69
2018-09-28T10:20:41.451Z,97620.73
2018-09-28T10:23:10.022Z,97621.24
2018-09-28T10:25:38.727Z,97630.13
2018-09-28T10:28:07.673Z,97623.83
2018-09-28T10:30:36.227Z,97622.45
2018-09-28T10:33:04.819Z,97614.85
2018-09-28T10:35:33.359Z,97599.22
2018-09-28T10:38:01.930Z,97599.27
2018-09-28T10:40:30.598Z,97602.42
2018-09-28T10:42:59.107Z,97604.32
2018-09-28T10:45:27.726Z,97597.66
2018-09-28T10:47:56.310Z,97601.97
2018-09-28T10:50:24.873Z,97601.34
2018-09-28T10:52:53.878Z,97597.78
2018-09-28T10:55:22.376Z,97597.62
2018-09-28T10:57:50.950Z,97601.25
2018-09-28T11:00:19.553Z,97592.61
2018-09-28T11:02:48.146Z,97590.84
2018-09-28T11:05:16.698Z,97600.59
2018-09-28T11:07:45.281Z,97601.31
2018-09-28T11:10:13.860Z,97610.35
2018-09-28T11:12:42.511Z,97615.28
2018-09-28T11:15:11.107Z,97610.92
2018-09-28T11:17:39.651Z,97607.94
2018-09-28T11:20:08.866Z,97600.80
2018-09-28T11:22:37.585Z,97603.48
2018-09-28T11:25:06.258Z,97607.71
2018-09-28T11:27:35.165Z,97611.48
2018-09-28T11:30:03.731Z,97605.31
2018-09-28T11:32:32.330Z,97604.62
2018-09-28T11:35:00.894Z,97608.49
2018-09-28T11:37:29.833Z,97596.36
2018-09-28T11:39:58.799Z,97605.05
2018-09-28T11:42:27.830Z,97602.73
2018-09-28T11:44:57.430Z,97600.63
2018-09-28T11:47:26.014Z,97601.14
2018-09-28T11:49:54.574Z,97602.34
2018-09-28T11:52:33.156Z,97609.73
2018-09-28T11:55:01.815Z,97606.75
2018-09-28T11:57:33.345Z,97608.92
2018-09-28T12:00:01.979Z,97605.52
2018-09-28T12:02:31.046Z,97607.89
2018-09-28T12:04:59.639Z,97617.70
2018-09-28T12:07:28.219Z,97622.50
2018-09-28T12:09:56.793Z,97633.13
2018-09-28T12:12:25.386Z,97620.95
2018-09-28T12:14:53.975Z,97625.95
2018-09-28T12:17:22.963Z,97628.18
2018-09-28T12:19:51.513Z,97624.54
2018-09-28T12:22:20.157Z,97626.77
2018-09-28T12:24:48.766Z,97629.50
2018-09-28T12:27:17.356Z,97632.74
2018-09-28T12:29:45.959Z,97624.94
2018-09-28T12:32:14.585Z,97622.48
2018-09-28T12:34:43.137Z,97619.88
2018-09-28T12:37:11.743Z,97626.23
2018-09-28T12:39:41.070Z,97623.18
2018-09-28T12:42:09.720Z,97622.70
2018-09-28T12:44:38.268Z,97615.46
2018-09-28T12:47:06.877Z,97624.13
2018-09-28T12:49:35.558Z,97633.98
2018-09-28T12:52:04.173Z,97626.04
2018-09-28T12:54:33.150Z,97626.01
2018-09-28T12:57:01.767Z,97630.46
2018-09-28T12:59:30.776Z,97636.25
2018-09-28T13:02:01.311Z,97640.39
2018-09-28T13:04:29.893Z,97648.80
2018-09-28T13:07:02.446Z,97647.94
2018-09-28T13:09:31.561Z,97646.59
2018-09-28T13:12:00.375Z,97640.09
2018-09-28T13:14:28.994Z,97649.26
2018-09-28T13:16:57.618Z,97642.48
2018-09-28T13:19:26.218Z,97644.59
2018-09-28T13:21:54.998Z,97650.77
2018-09-28T13:24:23.614Z,97652.00
2018-09-28T13:26:52.199Z,97656.58
2018-09-28T13:29:20.985Z,97660.47
2018-09-28T13:31:49.474Z,97665.34
2018-09-28T13:34:18.061Z,97656.61
2018-09-28T13:36:46.743Z,97663.73
2018-09-28T13:39:15.303Z,97664.05
2018-09-28T13:41:43.878Z,97663.88
2018-09-28T13:44:12.520Z,97661.94
2018-09-28T13:46:41.108Z,97669.11
2018-09-28T13:49:09.693Z,97667.71
2018-09-28T13:51:38.299Z,97666.93
2018-09-28T13:54:06.913Z,97669.17
2018-09-28T13:56:35.744Z,97666.25
2018-09-28T13:59:04.390Z,97667.63
2018-09-28T14:01:32.969Z,97669.80
2018-09-28T14:04:01.593Z,97681.77
2018-09-28T14:06:30.203Z,97679.52
2018-09-28T14:09:07.913Z,97684.82
2018-09-28T14:11:38.010Z,97683.68
2018-09-28T14:14:06.649Z,97693.17
2018-09-28T14:16:35.472Z,97698.38
2018-09-28T14:19:05.066Z,97690.83
2018-09-28T14:21:33.807Z,97691.94
2018-09-28T14:24:02.401Z,97700.50
2018-09-28T14:26:32.080Z,97699.61
2018-09-28T14:29:04.487Z,97703.48
2018-09-28T14:31:42.750Z,97707.75
2018-09-28T14:34:14.994Z,97704.25
2018-09-28T14:36:44.213Z,97702.97
2018-09-28T14:39:17.255Z,97707.77
2018-09-28T14:41:46.981Z,97698.63
2018-09-28T14:44:15.626Z,97702.03
2018-09-28T14:46:44.203Z,97709.66
2018-09-28T14:49:12.879Z,97707.13
2018-09-28T14:51:41.412Z,97716.20
2018-09-28T14:54:10.101Z,97719.06
2018-09-28T14:56:38.995Z,97718.20
2018-09-28T14:59:07.645Z,97725.34
2018-09-28T15:01:37.154Z,97722.23
2018-09-28T15:04:05.826Z,97722.92
2018-09-28T15:06:34.464Z,97729.19
2018-09-28T15:09:03.290Z,97733.09
2018-09-28T15:11:33.143Z,97731.61
2018-09-28T15:14:04.453Z,97736.25
2018-09-28T15:16:40.955Z,97732.47
2018-09-28T15:19:10.830Z,97738.79
2018-09-28T15:21:40.103Z,97732.47
2018-09-28T15:24:10.473Z,97739.19
2018-09-28T15:26:39.436Z,97735.18
2018-09-28T15:29:09.737Z,97743.33
2018-09-28T15:31:39.766Z,97744.31
2018-09-28T15:34:09.863Z,97741.70
2018-09-28T15:36:40.494Z,97745.30
2018-09-28T15:39:11.861Z,97745.39
2018-09-28T15:41:41.430Z,97744.89
2018-09-28T15:44:10.829Z,97741.32
2018-09-28T15:46:40.130Z,97744.78
2018-09-28T15:49:12.169Z,97752.78
2018-09-28T15:51:44.271Z,97746.16
2018-09-28T15:54:12.983Z,97752.64
2018-09-28T15:56:41.582Z,97753.05
2018-09-28T15:59:10.251Z,97752.52
2018-09-28T16:01:48.494Z,97763.99
2018-09-28T16:04:20.365Z,97766.77
2018-09-28T16:06:50.372Z,97777.55
2018-09-28T16:09:18.956Z,97776.83
2018-09-28T16:11:48.588Z,97783.46
2018-09-28T16:14:17.187Z,97784.80
2018-09-28T16:16:45.758Z,97789.46
2018-09-28T16:19:14.361Z,97792.81
2018-09-28T16:21:43.008Z,97787.75
2018-09-28T16:24:11.598Z,97795.66
2018-09-28T16:26:40.207Z,97793.15
2018-09-28T16:29:13.329Z,97792.42
2018-09-28T16:31:45.612Z,97804.45
2018-09-28T16:34:31.121Z,97801.48
2018-09-28T16:37:17.460Z,97809.94
2018-09-28T16:39:53.323Z,97815.81
2018-09-28T16:42:28.614Z,97815.81
2018-09-28T16:45:01.506Z,97828.45
2018-09-28T16:47:45.426Z,97827.80
2018-09-28T16:50:18.564Z,97824.28
2018-09-28T16:52:51.669Z,97824.15
2018-09-28T16:55:27.743Z,97818.59
2018-09-28T16:57:58.980Z,97830.61
2018-09-28T17:00:29.385Z,97830.32
2018-09-28T17:02:59.694Z,97830.61
2018-09-28T17:05:28.953Z,97829.13
2018-09-28T17:07:59.206Z,97835.70
2018-09-28T17:10:29.024Z,97826.89
2018-09-28T17:12:57.673Z,97825.10
2018-09-28T17:15:26.246Z,97838.60
2018-09-28T17:17:54.975Z,97836.10
2018-09-28T17:20:23.619Z,97833.58
2018-09-28T17:22:52.185Z,97836.37
2018-09-28T17:25:20.939Z,97837.52
2018-09-28T17:27:49.510Z,97843.98
2018-09-28T17:30:18.074Z,97844.18
2018-09-28T17:32:46.629Z,97848.69
2018-09-28T17:35:15.206Z,97848.69
2018-09-28T17:37:43.789Z,97855.78
2018-09-28T17:40:12.713Z,97866.13
2018-09-28T17:42:41.301Z,97862.55
2018-09-28T17:45:09.915Z,97863.38
2018-09-28T17:47:38.470Z,97875.50
2018-09-28T17:50:07.103Z,97868.41
2018-09-28T17:52:35.821Z,97868.90
2018-09-28T17:55:04.497Z,97879.03
2018-09-28T17:57:33.058Z,97883.09
2018-09-28T18:00:01.669Z,97888.38
2018-09-28T18:02:30.322Z,97894.11
2018-09-28T18:04:58.869Z,97903.09
2018-09-28T18:07:27.441Z,97902.72
2018-09-28T18:09:55.994Z,97901.67
2018-09-28T18:12:24.597Z,97915.17
2018-09-28T18:14:53.187Z,97922.05
2018-09-28T18:17:21.758Z,97927.31
2018-09-28T18:19:50.358Z,97922.80
2018-09-28T18:22:22.258Z,97930.85
2018-09-28T18:24:51.736Z,97925.58
2018-09-28T18:27:20.338Z,97927.52
2018-09-28T18:29:48.879Z,97927.06
2018-09-28T18:32:17.543Z,97933.61
2018-09-28T18:34:46.156Z,97938.30
2018-09-28T18:37:14.814Z,97930.63
2018-09-28T18:39:43.534Z,97933.42
2018-09-28T18:42:12.249Z,97941.45
2018-09-28T18:44:40.717Z,97941.91
2018-09-28T18:47:09.338Z,97944.63
2018-09-28T18:49:37.945Z,97949.61
2018-09-28T18:52:06.553Z,97950.05
2018-09-28T18:54:35.119Z,97952.23
2018-09-28T18:57:03.734Z,97957.02
2018-09-28T18:59:32.330Z,97958.67
2018-09-28T19:02:00.890Z,97952.86
2018-09-28T19:04:29.477Z,97954.25
2018-09-28T19:06:58.093Z,97952.40
2018-09-28T19:09:26.650Z,97954.02
2018-09-28T19:11:55.315Z,97949.70
2018-09-28T19:14:24.217Z,97948.83
2018-09-28T19:16:52.793Z,97957.48
2018-09-28T19:19:21.374Z,97956.00
2018-09-28T19:21:49.942Z,97956.87
2018-09-28T19:24:18.478Z,97961.53
2018-09-28T19:26:47.038Z,97966.70
2018-09-28T19:29:15.602Z,97967.05
2018-09-28T19:31:44.222Z,97973.13
2018-09-28T19:34:12.847Z,97970.28
2018-09-28T19:36:41.677Z,97979.58
2018-09-28T19:39:12.009Z,97998.28
2018-09-28T19:41:41.109Z,98001.14
2018-09-28T19:44:10.022Z,97997.90
2018-09-28T19:46:38.593Z,98005.22
2018-09-28T19:49:07.274Z,98010.14
2018-09-28T19:51:35.866Z,98014.41
2018-09-28T19:54:04.410Z,98011.47
2018-09-28T19:56:32.987Z,98022.23
2018-09-28T19:59:01.780Z,98026.91
2018-09-28T20:01:30.406Z,98036.25
2018-09-28T20:03:59.063Z,98042.02
2018-09-28T20:06:27.667Z,98040.14
2018-09-28T20:08:56.262Z,98036.05
2018-09-28T20:11:24.809Z,98034.74
2018-09-28T20:13:53.421Z,98032.16
2018-09-28T20:16:21.990Z,98040.46
2018-09-28T20:18:50.656Z,98039.86
2018-09-28T20:21:19.211Z,98046.23
2018-09-28T20:23:47.895Z,98040.06
2018-09-28T20:26:16.493Z,98037.89
2018-09-28T20:28:45.047Z,98040.56
2018-09-28T20:31:13.631Z,98038.31
2018-09-28T20:33:42.210Z,98039.64
2018-09-28T20:36:10.782Z,98053.28
2018-09-28T20:38:39.395Z,98045.38
2018-09-28T20:41:07.965Z,98051.84
2018-09-28T20:43:36.519Z,98047.93
2018-09-28T20:46:05.078Z,98040.14
2018-09-28T20:48:33.709Z,98048.34
2018-09-28T20:51:02.258Z,98049.05
2018-09-28T20:53:30.993Z,98049.05
2018-09-28T20:55:59.590Z,98053.27
2018-09-28T20:58:28.238Z,98062.80
2018-09-28T21:00:57.253Z,98066.27
2018-09-28T21:03:25.895Z,98067.00
2018-09-28T21:05:54.664Z,98066.91
2018-09-28T21:08:23.305Z,98070.75
2018-09-28T21:10:51.870Z,98073.20
2018-09-28T21:13:20.477Z,98079.96
2018-09-28T21:15:49.062Z,98083.33
2018-09-28T21:18:17.656Z,98078.13
2018-09-28T21:20:46.506Z,98084.15
2018-09-28T21:23:15.103Z,98084.34
2018-09-28T21:25:43.650Z,98089.55
2018-09-28T21:28:12.261Z,98079.36
2018-09-28T21:30:40.814Z,98081.65
2018-09-28T21:33:09.603Z,98082.98
2018-09-28T21:35:38.187Z,98088.69
2018-09-28T21:38:07.179Z,98086.98
2018-09-28T21:40:35.742Z,98084.44
2018-09-28T21:43:04.321Z,98094.48
2018-09-28T21:45:32.869Z,98095.28
2018-09-28T21:48:01.465Z,98090.32
2018-09-28T21:50:30.030Z,98085.41
2018-09-28T21:52:58.646Z,98082.37
2018-09-28T21:55:27.261Z,98088.39
2018-09-28T21:57:55.812Z,98087.84
2018-09-28T22:00:24.366Z,98092.34
2018-09-28T22:02:52.905Z,98088.95
2018-09-28T22:05:21.505Z,98083.11
2018-09-28T22:07:50.049Z,98079.20
2018-09-28T22:10:18.653Z,98077.19
2018-09-28T22:12:47.242Z,98077.41
2018-09-28T22:15:16.926Z,98082.91
2018-09-28T22:17:46.027Z,98090.34
2018-09-28T22:20:14.677Z,98093.99
2018-09-28T22:22:43.227Z,98093.41
2018-09-28T22:25:11.886Z,98087.66
2018-09-28T22:27:51.874Z,98085.22
2018-09-28T22:30:20.494Z,98082.85
2018-09-28T22:32:49.085Z,98083.26
2018-09-28T22:35:17.966Z,98073.92
2018-09-28T22:37:46.522Z,98075.27
2018-09-28T22:40:15.160Z,98080.08
2018-09-28T22:42:43.745Z,98083.88
2018-09-28T22:45:12.287Z,98078.65
2018-09-28T22:47:40.881Z,98082.84
2018-09-28T22:50:09.530Z,98098.63
2018-09-28T22:52:38.089Z,98094.20
2018-09-28T22:55:06.875Z,98098.16
2018-09-28T22:57:35.634Z,98098.74
2018-09-28T23:00:05.347Z,98096.80
2018-09-28T23:02:33.892Z,98101.85
2018-09-28T23:05:02.479Z,98111.41
2018-09-28T23:07:30.998Z,98104.05
2018-09-28T23:09:59.595Z,98113.05
2018-09-28T23:12:28.153Z,98117.32
2018-09-28T23:14:56.862Z,98113.31
2018-09-28T23:17:25.454Z,98108.69
2018-09-28T23:19:54.038Z,98111.12
2018-09-28T23:22:22.599Z,98109.94
2018-09-28T23:24:51.186Z,98105.38
2018-09-28T23:27:19.797Z,98107.77
2018-09-28T23:29:48.425Z,98106.84
2018-09-28T23:32:16.989Z,98103.30
2018-09-28T23:34:45.555Z,98102.90
2018-09-28T23:37:14.117Z,98105.52
2018-09-28T23:39:42.713Z,98103.20
2018-09-28T23:42:11.332Z,98103.84
2018-09-28T23:44:40.009Z,98108.53
2018-09-28T23:47:08.581Z,98097.45
2018-09-28T23:49:37.148Z,98086.55
2018-09-28T23:52:05.744Z,98081.59
2018-09-28T23:54:34.344Z,98081.67
2018-09-28T23:57:02.962Z,98093.20
2018-09-28T23:59:31.520Z,98099.14
